| time (UTC) | temp C | wind direction | speed KPH | gust KPH | rain 1hr cm | rain 24hr cm | rain mn cm | humidity % | barometer mb |
| 20260508213024 | 23 | 335 | 6.4 | 9.7 | 0.00 | 0.00 | 0.00 | 24 | 1017.4 |
| 20260508212018 | 23 | 324 | 6.4 | 12.9 | 0.00 | 0.00 | 0.00 | 24 | 1017.4 |
| 20260508211112 | 23 | 329 | 6.4 | 12.9 | 0.00 | 0.00 | 0.00 | 25 | 1017.7 |
| 20260508210025 | 22 | 340 | 6.4 | 11.3 | 0.00 | 0.00 | 0.00 | 24 | 1017.7 |
| 20260508205100 | 22 | 321 | 6.4 | 12.9 | 0.00 | 0.00 | 0.00 | 25 | 1017.9 |
| 20260508204053 | 23 | 319 | 6.4 | 9.7 | 0.00 | 0.00 | 0.00 | 25 | 1017.9 |
| 20260508203027 | 22 | 340 | 6.4 | 9.7 | 0.00 | 0.00 | 0.00 | 26 | 1018.0 |
| 20260508202022 | 22 | 334 | 8.0 | 14.5 | 0.00 | 0.00 | 0.00 | 26 | 1018.0 |
| 20260508201035 | 22 | 310 | 8.0 | 16.1 | 0.00 | 0.00 | 0.00 | 26 | 1017.9 |
| 20260508200028 | 22 | 279 | 4.8 | 8.0 | 0.00 | 0.00 | 0.00 | 26 | 1018.1 |
| 20260508195022 | 21 | 257 | 6.4 | 16.1 | 0.00 | 0.00 | 0.00 | 28 | 1018.1 |
| 20260508194017 | 21 | 250 | 11.3 | 22.5 | 0.00 | 0.00 | 0.00 | 28 | 1018.2 |
| 20260508193030 | 21 | 303 | 6.4 | 14.5 | 0.00 | 0.00 | 0.00 | 29 | 1018.2 |
| 20260508192024 | 21 | 271 | 6.4 | 12.9 | 0.00 | 0.00 | 0.00 | 30 | 1018.4 |
| 20260508191018 | 21 | 239 | 8.0 | 20.9 | 0.00 | 0.00 | 0.00 | 30 | 1018.3 |
| 20260508190032 | 20 | 270 | 8.0 | 17.7 | 0.00 | 0.00 | 0.00 | 31 | 1018.5 |
| 20260508185026 | 21 | 298 | 6.4 | 19.3 | 0.00 | 0.00 | 0.00 | 30 | 1018.6 |
| 20260508184100 | 20 | 161 | 3.2 | 6.4 | 0.00 | 0.00 | 0.00 | 30 | 1018.7 |
| 20260508183035 | 20 | 255 | 8.0 | 20.9 | 0.00 | 0.00 | 0.00 | 30 | 1018.8 |
| 20260508182029 | 20 | 293 | 3.2 | 6.4 | 0.00 | 0.00 | 0.00 | 30 | 1018.8 |
| 20260508181023 | 20 | 219 | 6.4 | 16.1 | 0.00 | 0.00 | 0.00 | 29 | 1018.8 |
| 20260508180017 | 20 | 229 | 8.0 | 17.7 | 0.00 | 0.00 | 0.00 | 29 | 1018.8 |
| 20260508175031 | 20 | 216 | 4.8 | 22.5 | 0.00 | 0.00 | 0.00 | 34 | 1018.9 |
| 20260508174025 | 19 | 260 | 4.8 | 12.9 | 0.00 | 0.00 | 0.00 | 36 | 1019.0 |
| 20260508173019 | 18 | 205 | 4.8 | 14.5 | 0.00 | 0.00 | 0.00 | 36 | 1019.0 |
| 20260508172033 | 19 | 225 | 6.4 | 14.5 | 0.00 | 0.00 | 0.00 | 36 | 1018.9 |
| 20260508171027 | 19 | 274 | 4.8 | 9.7 | 0.00 | 0.00 | 0.00 | 36 | 1018.9 |
| 20260508170020 | 19 | 233 | 6.4 | 14.5 | 0.00 | 0.00 | 0.00 | 35 | 1018.9 |
| 20260508165035 | 19 | 237 | 4.8 | 11.3 | 0.00 | 0.00 | 0.00 | 33 | 1018.8 |
| 20260508164028 | 18 | 233 | 4.8 | 11.3 | 0.00 | 0.00 | 0.00 | 34 | 1018.8 |
| 20260508163022 | 18 | 218 | 6.4 | 16.1 | 0.00 | 0.00 | 0.00 | 35 | 1018.6 |
| 20260508162016 | 18 | 221 | 4.8 | 11.3 | 0.00 | 0.00 | 0.00 | 38 | 1018.6 |
| 20260508161030 | 17 | 206 | 3.2 | 11.3 | 0.00 | 0.00 | 0.00 | 39 | 1018.6 |
| 20260508160024 | 17 | 212 | 4.8 | 12.9 | 0.00 | 0.00 | 0.00 | 39 | 1018.5 |
| 20260508155018 | 17 | 203 | 3.2 | 8.0 | 0.00 | 0.00 | 0.00 | 38 | 1018.5 |
| 20260508154032 | 17 | 206 | 3.2 | 9.7 | 0.00 | 0.00 | 0.00 | 38 | 1018.5 |
| 20260508153025 | 18 | 203 | 1.6 | 3.2 | 0.00 | 0.00 | 0.00 | 36 | 1018.5 |
| 20260508152020 | 17 | 176 | 1.6 | 6.4 | 0.00 | 0.00 | 0.00 | 37 | 1018.3 |
| 20260508151035 | 17 | 131 | 0.0 | 3.2 | 0.00 | 0.00 | 0.00 | 37 | 1018.2 |
| 20260508150029 | 17 | 76 | 1.6 | 4.8 | 0.00 | 0.00 | 0.00 | 40 | 1018.3 |
| 20260508145022 | 16 | 39 | 3.2 | 4.8 | 0.00 | 0.00 | 0.00 | 43 | 1018.2 |
| 20260508144016 | 15 | 314 | 0.0 | 1.6 | 0.00 | 0.00 | 0.00 | 49 | 1018.2 |
| 20260508143029 | 15 | 67 | 3.2 | 4.8 | 0.00 | 0.00 | 0.00 | 48 | 1018.1 |
| 20260508142023 | 13 | 80 | 1.6 | 1.6 | 0.00 | 0.00 | 0.00 | 51 | 1018.1 |
| 20260508141016 | 13 | 57 | 1.6 | 3.2 | 0.00 | 0.00 | 0.00 | 48 | 1017.9 |
| 20260508140030 | 13 | 79 | 1.6 | 3.2 | 0.00 | 0.00 | 0.00 | 49 | 1017.9 |
| 20260508135024 | 12 | 78 | 1.6 | 3.2 | 0.00 | 0.00 | 0.00 | 51 | 1017.8 |
| 20260508134017 | 12 | 119 | 1.6 | 3.2 | 0.00 | 0.00 | 0.00 | 50 | 1017.6 |
| 20260508133031 | 12 | 66 | 3.2 | 4.8 | 0.00 | 0.00 | 0.00 | 46 | 1017.5 |
| 20260508132024 | 12 | 54 | 3.2 | 4.8 | 0.00 | 0.00 | 0.00 | 47 | 1017.4 |
| 20260508131058 | 12 | 59 | 4.8 | 4.8 | 0.00 | 0.00 | 0.00 | 46 | 1017.3 |
| 20260508130112 | 12 | 63 | 4.8 | 4.8 | 0.00 | 0.00 | 0.00 | 45 | 1017.2 |
| 20260508125027 | 12 | 66 | 4.8 | 6.4 | 0.00 | 0.00 | 0.00 | 43 | 1017.1 |
| 20260508124101 | 12 | 56 | 3.2 | 4.8 | 0.00 | 0.00 | 0.00 | 44 | 1017.0 |
| 20260508123035 | 12 | 65 | 4.8 | 4.8 | 0.00 | 0.00 | 0.00 | 45 | 1016.9 |
| 20260508122030 | 12 | 81 | 4.8 | 6.4 | 0.00 | 0.00 | 0.00 | 45 | 1016.8 |
| 20260508121023 | 12 | 74 | 4.8 | 4.8 | 0.00 | 0.00 | 0.00 | 43 | 1016.8 |
| 20260508120018 | 12 | 76 | 4.8 | 6.4 | 0.00 | 0.00 | 0.00 | 43 | 1016.7 |
| 20260508115031 | 12 | 82 | 4.8 | 4.8 | 0.00 | 0.00 | 0.00 | 44 | 1016.7 |
| 20260508114024 | 12 | 75 | 3.2 | 4.8 | 0.00 | 0.00 | 0.00 | 46 | 1016.6 |
| 20260508113018 | 12 | 68 | 4.8 | 4.8 | 0.00 | 0.00 | 0.00 | 46 | 1016.6 |
| 20260508112032 | 12 | 71 | 4.8 | 4.8 | 0.00 | 0.00 | 0.00 | 47 | 1016.6 |
| 20260508111025 | 12 | 71 | 4.8 | 6.4 | 0.00 | 0.00 | 0.00 | 46 | 1016.6 |
| 20260508110019 | 13 | 77 | 4.8 | 6.4 | 0.00 | 0.00 | 0.00 | 46 | 1016.6 |
| 20260508105034 | 12 | 77 | 4.8 | 9.7 | 0.00 | 0.00 | 0.00 | 48 | 1016.6 |
| 20260508104027 | 12 | 68 | 4.8 | 4.8 | 0.00 | 0.00 | 0.00 | 49 | 1016.4 |
| 20260508103021 | 12 | 67 | 3.2 | 4.8 | 0.00 | 0.00 | 0.00 | 49 | 1016.5 |
| 20260508102035 | 12 | 69 | 4.8 | 4.8 | 0.00 | 0.00 | 0.00 | 49 | 1016.4 |
| 20260508101028 | 12 | 63 | 4.8 | 4.8 | 0.00 | 0.00 | 0.00 | 49 | 1016.4 |
| 20260508100021 | 12 | 63 | 3.2 | 4.8 | 0.00 | 0.00 | 0.00 | 50 | 1016.3 |
| 20260508095016 | 12 | 64 | 3.2 | 4.8 | 0.00 | 0.00 | 0.00 | 50 | 1016.2 |
| 20260508094029 | 12 | 79 | 3.2 | 4.8 | 0.00 | 0.00 | 0.00 | 51 | 1016.2 |
| 20260508093022 | 13 | 99 | 3.2 | 6.4 | 0.00 | 0.00 | 0.00 | 48 | 1016.2 |
| 20260508092015 | 12 | 100 | 3.2 | 4.8 | 0.00 | 0.00 | 0.00 | 50 | 1016.1 |
| 20260508091029 | 13 | 65 | 4.8 | 4.8 | 0.00 | 0.00 | 0.00 | 47 | 1015.9 |
| 20260508090057 | 12 | 77 | 4.8 | 6.4 | 0.00 | 0.00 | 0.00 | 50 | 1015.9 |
| 20260508085026 | 12 | 82 | 3.2 | 4.8 | 0.00 | 0.00 | 0.00 | 49 | 1016.1 |
| 20260508084019 | 12 | 82 | 3.2 | 3.2 | 0.00 | 0.00 | 0.00 | 48 | 1016.2 |
| 20260508083033 | 13 | 72 | 3.2 | 4.8 | 0.00 | 0.00 | 0.00 | 48 | 1016.1 |
| 20260508082028 | 13 | 57 | 3.2 | 4.8 | 0.00 | 0.00 | 0.00 | 46 | 1016.1 |
| 20260508081018 | 13 | 77 | 3.2 | 4.8 | 0.00 | 0.00 | 0.00 | 44 | 1016.1 |
| 20260508080029 | 14 | 72 | 4.8 | 6.4 | 0.00 | 0.00 | 0.00 | 44 | 1016.1 |
| 20260508075020 | 14 | 55 | 4.8 | 6.4 | 0.00 | 0.00 | 0.00 | 43 | 1016.1 |
| 20260508074033 | 14 | 43 | 4.8 | 6.4 | 0.00 | 0.00 | 0.00 | 43 | 1016.1 |
| 20260508073024 | 14 | 49 | 4.8 | 6.4 | 0.00 | 0.00 | 0.00 | 44 | 1016.1 |
| 20260508072106 | 14 | 47 | 4.8 | 6.4 | 0.00 | 0.00 | 0.00 | 44 | 1016.0 |
| 20260508071028 | 14 | 43 | 4.8 | 6.4 | 0.00 | 0.00 | 0.00 | 44 | 1016.0 |
| 20260508070020 | 14 | 48 | 4.8 | 6.4 | 0.00 | 0.00 | 0.00 | 44 | 1015.9 |
| 20260508065032 | 15 | 70 | 4.8 | 6.4 | 0.00 | 0.00 | 0.00 | 43 | 1015.9 |
| 20260508064144 | 15 | 71 | 4.8 | 6.4 | 0.00 | 0.00 | 0.00 | 40 | 1015.9 |
| 20260508063018 | 15 | 74 | 3.2 | 6.4 | 0.00 | 0.00 | 0.00 | 42 | 1015.8 |
| 20260508062032 | 15 | 64 | 3.2 | 3.2 | 0.00 | 0.00 | 0.00 | 42 | 1015.8 |
| 20260508061027 | 15 | 73 | 3.2 | 4.8 | 0.00 | 0.00 | 0.00 | 42 | 1015.7 |
| 20260508060020 | 15 | 60 | 1.6 | 4.8 | 0.00 | 0.00 | 0.00 | 42 | 1015.7 |
| 20260508055033 | 15 | 60 | 6.4 | 6.4 | 0.00 | 0.00 | 0.00 | 40 | 1015.6 |
| 20260508054023 | 15 | 60 | 6.4 | 8.0 | 0.00 | 0.00 | 0.00 | 40 | 1015.5 |
| 20260508053058 | 15 | 45 | 4.8 | 6.4 | 0.00 | 0.00 | 0.00 | 39 | 1015.5 |
| 20260508052112 | 15 | 48 | 6.4 | 6.4 | 0.00 | 0.00 | 0.00 | 40 | 1015.4 |
| 20260508051026 | 15 | 31 | 4.8 | 6.4 | 0.00 | 0.00 | 0.00 | 40 | 1015.5 |
| 20260508050020 | 15 | 40 | 4.8 | 6.4 | 0.00 | 0.00 | 0.00 | 40 | 1015.4 |
| 20260508045113 | 16 | 30 | 4.8 | 6.4 | 0.00 | 0.00 | 0.00 | 39 | 1015.4 |
| 20260508044027 | 16 | 30 | 4.8 | 6.4 | 0.00 | 0.00 | 0.00 | 39 | 1015.5 |
| 20260508043021 | 16 | 32 | 4.8 | 6.4 | 0.00 | 0.00 | 0.00 | 39 | 1015.4 |
| 20260508042015 | 16 | 60 | 6.4 | 8.0 | 0.00 | 0.00 | 0.00 | 38 | 1015.5 |
| 20260508041030 | 16 | 61 | 6.4 | 8.0 | 0.00 | 0.00 | 0.00 | 39 | 1015.3 |
| 20260508040023 | 16 | 46 | 4.8 | 6.4 | 0.00 | 0.00 | 0.00 | 39 | 1015.2 |
| 20260508035016 | 16 | 30 | 4.8 | 6.4 | 0.00 | 0.00 | 0.00 | 39 | 1015.2 |
| 20260508034030 | 16 | 49 | 4.8 | 8.0 | 0.00 | 0.00 | 0.00 | 39 | 1015.2 |
| 20260508033024 | 16 | 39 | 4.8 | 6.4 | 0.00 | 0.00 | 0.00 | 38 | 1015.2 |
| 20260508032018 | 17 | 46 | 6.4 | 8.0 | 0.00 | 0.00 | 0.00 | 38 | 1015.0 |
| 20260508031031 | 17 | 49 | 6.4 | 6.4 | 0.00 | 0.00 | 0.00 | 38 | 1014.8 |
| 20260508030025 | 17 | 33 | 4.8 | 6.4 | 0.00 | 0.00 | 0.00 | 38 | 1014.9 |
| 20260508025019 | 17 | 32 | 6.4 | 6.4 | 0.00 | 0.00 | 0.00 | 37 | 1014.9 |
| 20260508024033 | 18 | 43 | 4.8 | 6.4 | 0.00 | 0.00 | 0.00 | 37 | 1014.8 |
| 20260508023027 | 20 | 43 | 4.8 | 6.4 | 0.00 | 0.00 | 0.00 | 34 | 1014.8 |
| 20260508022101 | 20 | 53 | 3.2 | 4.8 | 0.00 | 0.00 | 0.00 | 32 | 1014.8 |
| 20260508021035 | 22 | 40 | 1.6 | 3.2 | 0.00 | 0.00 | 0.00 | 29 | 1014.5 |
| 20260508020029 | 23 | 118 | 0.0 | 1.6 | 0.00 | 0.00 | 0.00 | 28 | 1014.7 |
| 20260508015022 | 23 | 0.0 | 3.2 | 0.00 | 0.00 | 0.00 | 27 | 1014.7 | |
| 20260508014016 | 23 | 302 | 0.0 | 3.2 | 0.00 | 0.00 | 0.00 | 26 | 1014.7 |
| 20260508013030 | 23 | 280 | 3.2 | 8.0 | 0.00 | 0.00 | 0.00 | 26 | 1014.7 |
| 20260508012023 | 23 | 292 | 1.6 | 6.4 | 0.00 | 0.00 | 0.00 | 26 | 1014.7 |
| 20260508011016 | 23 | 273 | 3.2 | 8.0 | 0.00 | 0.00 | 0.00 | 26 | 1014.8 |
| 20260508010030 | 23 | 299 | 3.2 | 9.7 | 0.00 | 0.00 | 0.00 | 26 | 1014.8 |
| 20260508005022 | 23 | 256 | 4.8 | 8.0 | 0.00 | 0.00 | 0.00 | 26 | 1014.7 |
| 20260508004016 | 23 | 273 | 4.8 | 9.7 | 0.00 | 0.00 | 0.00 | 25 | 1014.9 |
| 20260508003028 | 24 | 280 | 3.2 | 6.4 | 0.00 | 0.00 | 0.00 | 25 | 1015.0 |
| 20260508002022 | 23 | 7 | 3.2 | 6.4 | 0.00 | 0.00 | 0.00 | 26 | 1015.1 |
| 20260508001035 | 24 | 268 | 4.8 | 12.9 | 0.00 | 0.00 | 0.00 | 26 | 1015.1 |
| 20260508000033 | 22 | 98 | 1.6 | 4.8 | 0.00 | 0.00 | 0.00 | 27 | 1015.2 |
| 20260507235022 | 22 | 157 | 1.6 | 4.8 | 0.00 | 0.00 | 0.00 | 27 | 1015.3 |
| 20260507234016 | 22 | 272 | 1.6 | 11.3 | 0.00 | 0.00 | 0.00 | 28 | 1015.4 |
| 20260507233030 | 22 | 22 | 1.6 | 4.8 | 0.00 | 0.00 | 0.00 | 28 | 1015.5 |
| 20260507232023 | 22 | 232 | 4.8 | 11.3 | 0.00 | 0.00 | 0.00 | 27 | 1015.6 |
| 20260507231017 | 23 | 330 | 3.2 | 8.0 | 0.00 | 0.00 | 0.00 | 26 | 1015.7 |
| 20260507230031 | 22 | 288 | 3.2 | 8.0 | 0.00 | 0.00 | 0.00 | 27 | 1015.9 |
| 20260507225025 | 22 | 360 | 1.6 | 4.8 | 0.00 | 0.00 | 0.00 | 28 | 1016.2 |
| 20260507224020 | 22 | 247 | 3.2 | 11.3 | 0.00 | 0.00 | 0.00 | 29 | 1016.2 |
| 20260507223034 | 22 | 287 | 1.6 | 4.8 | 0.00 | 0.00 | 0.00 | 28 | 1016.5 |
| 20260507222029 | 22 | 298 | 4.8 | 14.5 | 0.00 | 0.00 | 0.00 | 29 | 1016.5 |
| 20260507221023 | 21 | 262 | 4.8 | 17.7 | 0.00 | 0.00 | 0.00 | 28 | 1016.7 |
| 20260507220017 | 21 | 272 | 1.6 | 9.7 | 0.00 | 0.00 | 0.00 | 29 | 1016.7 |
| 20260507215031 | 21 | 271 | 6.4 | 16.1 | 0.00 | 0.00 | 0.00 | 28 | 1016.9 |
| 20260507214027 | 21 | 256 | 4.8 | 14.5 | 0.00 | 0.00 | 0.00 | 28 | 1017.0 |